• Join FlightAware (Why Join?)
  • Login
  • US Flag 
06:07AM EDT


 

Airport Tracker/Info


-or-


 

Live Flight TrackerFlight Track Log ✈ CTL312 ✈ 18-Apr-2013 ✈ KBKL - KMBS

Flight Track Log - Related Links

Times and Time Zones

All times are in EDT time to prevent confusion due to time zone crossing. See the CTL312 flight status page for this flight to view local times or setup timezone preferences in your user account.

Time Position Orientation Groundspeed Altitude Reporting Facility
EDT Latitude Longitude Course Direction KTS MPH feet Rate Location/Type
06:48PM 41.5147 -81.7006 316° Northwest 118 136 900  Level Cleveland Center
06:50PM 41.5456 -81.7400 316° Northwest 160 184 1,700 600 Climbing Cleveland Center
06:51PM 41.5617 -81.7847 296° West 146 168 2,200 540 Climbing Cleveland Center
06:52PM 41.5778 -81.8350 293° West 142 163 2,900 600 Climbing Cleveland Center
06:52PM 41.5961 -81.8825 297° West 155 178 3,400 600 Climbing Cleveland Center
06:53PM 41.6142 -81.9358 294° West 158 182 4,100 360 Climbing Cleveland Center
06:54PM 41.6283 -81.9889 290° West 165 190 4,100 -60 Level Cleveland Center
06:55PM 41.6442 -82.0447 291° West 156 180 4,000 -60 Descending Cleveland Center
06:56PM 41.6622 -82.1006 293° West 166 191 4,000  Level Cleveland Center
06:57PM 41.6783 -82.1539 292° West 162 186 4,100  Climbing Cleveland Center
06:58PM 41.6983 -82.2044 298° West 164 189 4,000  Descending Cleveland Center
06:59PM 41.7225 -82.2581 301° West 162 186 4,100  Climbing Cleveland Center
07:00PM 41.7431 -82.2919 309° West 172 198 4,000 -120 Descending Cleveland Center
07:01PM 41.7717 -82.3206 323° Northwest 188 216 4,000 60 Level Cleveland Center
07:02PM 41.8108 -82.3578 325° Northwest 185 213 4,100  Climbing Cleveland Center
07:03PM 41.8497 -82.3950 325° Northwest 183 211 4,000  Descending Cleveland Center
07:04PM 41.8928 -82.4381 323° Northwest 185 213 4,100  Climbing Cleveland Center
07:05PM 41.9358 -82.4783 325° Northwest 180 207 4,100 -60 Level Cleveland Center
07:06PM 41.9792 -82.5161 327° Northwest 182 209 4,000  Descending Cleveland Center
07:07PM 42.0222 -82.5564 325° Northwest 180 207 4,100  Climbing Cleveland Center
07:08PM 42.0633 -82.5886 330° Northwest 184 212 4,000  Descending Cleveland Center
07:09PM 42.1086 -82.6208 332° Northwest 182 209 4,100  Climbing Cleveland Center
07:10PM 42.1539 -82.6558 330° Northwest 182 209 4,100  Level Cleveland Center
07:11PM 42.1969 -82.6881 331° Northwest 178 205 4,100  Level Cleveland Center
07:12PM 42.2422 -82.7203 332° Northwest 178 205 4,100  Level Cleveland Center
07:13PM 42.2875 -82.7500 334° Northwest 176 203 4,100  Level Cleveland Center
07:14PM 42.3308 -82.7825 331° Northwest 173 199 4,100 -60 Level Cleveland Center
07:15PM 42.3739 -82.8119 333° Northwest 172 198 4,000  Descending Cleveland Center
07:16PM 42.4150 -82.8417 332° Northwest 171 197 4,100  Climbing Cleveland Center
07:17PM 42.4625 -82.8742 333° Northwest 173 199 4,100  Level Cleveland Center
07:18PM 42.5056 -82.9011 335° Northwest 176 203 4,100  Level Cleveland Center
07:19PM 42.5508 -82.9339 332° Northwest 167 192 4,100  Level Cleveland Center
07:20PM 42.5856 -82.9633 328° Northwest 151 174 4,100 -60 Level Cleveland Center
07:21PM 42.6142 -82.9956 320° Northwest 150 173 4,000  Descending Cleveland Center
07:22PM 42.6447 -83.0333 318° Northwest 152 175 4,100  Climbing Cleveland Center
07:23PM 42.6833 -83.0744 322° Northwest 151 174 4,000  Descending Cleveland Center
07:24PM 42.7117 -83.1094 318° Northwest 149 171 4,100 60 Climbing Cleveland Center
07:26PM 42.7663 -83.1739 319° Northwest  Level FlightAware Approximate
07:33PM 42.9997 -83.4458 320° Northwest  Level FlightAware Approximate
07:34PM 43.0330 -83.4847 320° Northwest  Level FlightAware Approximate
07:35PM 43.0663 -83.5237 320° Northwest  Level FlightAware Approximate
07:36PM 43.0997 -83.5627 319° Northwest  Level FlightAware Approximate
07:37PM 43.1330 -83.6017 319° Northwest  Level FlightAware Approximate
07:38PM 43.1663 -83.6407 319° Northwest  Level FlightAware Approximate
07:39PM 43.1996 -83.6799 319° Northwest  Level FlightAware Approximate
07:40PM 43.2326 -83.7194 318° Northwest  Level FlightAware Approximate
07:41PM 43.2654 -83.7594 318° Northwest  Level FlightAware Approximate
07:42PM 43.2981 -83.7994 318° Northwest  Level FlightAware Approximate
07:43PM 43.3308 -83.8394 318° Northwest  Level FlightAware Approximate
07:44PM 43.3636 -83.8795 318° Northwest  Level FlightAware Approximate
07:45PM 43.3964 -83.9195 318° Northwest  Level FlightAware Approximate
07:46PM 43.4291 -83.9595 318° Northwest  Level FlightAware Approximate
07:47PM 43.4619 -83.9996 318° Northwest  Level FlightAware Approximate
07:48PM 43.4947 -84.0397 318° Northwest  Level FlightAware Approximate
07:49PM 43.5167 -84.0667 318° Northwest  Level FlightAware Approximate
07:50PM 43.5329 -84.0796 318° Northwest  Level Estimated
07:51PM 43.5329 -84.0796 318° Northwest  Level Estimated
07:52PM 43.5329 -84.0796 318° Northwest  Level Estimated
07:53PM 43.5329 -84.0796 318° Northwest  Level Estimated
07:54PM 43.5329 -84.0796 318° Northwest  Level Estimated